Acorn Park, Oregon
Current Conditions -  °F | °C
As of 7:54 PM on Thursday 20 Nov 2014 (Local Time) from KEUG Reporting Station
Moderate Fog Moderate Fog  
Wind Chill: 48°   Ceiling: 100
Heat Index: 48°   Visibility: 0.25mi
Dew Point: 47°   Wind: 0mph
Humidity: 96%   Direction: NA
Pressure: 29.97"   Gusts: NA
Location:  44.0318°N, 123.235°W
Report Text: KEUG 210354Z 00000KT 1/4SM R16R/1200V2000FT FG VV001 09/08 A2997 RMK AO2 TWR VIS 1/2 SLP149 T00890083 $
Loading
Personal Weather Stations






























Interactive Weather Map New forecast layout! Learn more

10-Day Weather Forecast

Advertisements
Track Severe Weather on mobile